createdAt,value
2023-04-19T00:00:08.848Z,94.49
2023-04-19T00:02:36.578Z,94.33
2023-04-19T00:05:04.082Z,94.50
2023-04-19T00:07:31.013Z,94.23
2023-04-19T00:09:57.845Z,94.22
2023-04-19T00:12:25.088Z,93.93
2023-04-19T00:14:51.907Z,94.90
2023-04-19T00:17:19.621Z,95.15
2023-04-19T00:19:46.477Z,94.67
2023-04-19T00:22:13.383Z,95.33
2023-04-19T00:24:40.449Z,95.34
2023-04-19T00:27:07.289Z,95.67
2023-04-19T00:29:34.199Z,95.27
2023-04-19T00:32:01.038Z,95.39
2023-04-19T00:34:27.930Z,95.42
2023-04-19T00:36:54.755Z,95.38
2023-04-19T00:39:21.625Z,94.86
2023-04-19T00:41:48.461Z,96.03
2023-04-19T00:44:15.490Z,96.58
2023-04-19T00:46:43.312Z,96.56
2023-04-19T00:49:10.643Z,96.86
2023-04-19T00:51:37.484Z,96.65
2023-04-19T00:54:04.629Z,96.02
2023-04-19T00:56:34.364Z,95.47
2023-04-19T00:59:01.468Z,95.98
2023-04-19T01:01:29.321Z,97.26
2023-04-19T01:03:56.422Z,97.55
2023-04-19T01:06:23.451Z,96.54
2023-04-19T01:08:50.451Z,97.15
2023-04-19T01:11:17.309Z,97.21
2023-04-19T01:13:44.130Z,96.61
2023-04-19T01:16:11.312Z,96.43
2023-04-19T01:18:39.619Z,96.00
2023-04-19T01:21:08.908Z,96.16
2023-04-19T01:23:36.846Z,96.87
2023-04-19T01:26:03.730Z,97.03
2023-04-19T01:28:30.627Z,97.44
2023-04-19T01:30:57.538Z,98.11
2023-04-19T01:33:24.453Z,98.24
2023-04-19T01:35:51.307Z,97.72
2023-04-19T01:38:18.329Z,97.46
2023-04-19T01:40:45.765Z,97.20
2023-04-19T01:43:18.751Z,97.65
2023-04-19T01:45:46.063Z,98.15
2023-04-19T01:48:12.902Z,97.21
2023-04-19T01:50:39.726Z,96.72
2023-04-19T01:53:06.551Z,97.40
2023-04-19T01:55:33.375Z,97.75
2023-04-19T01:58:00.259Z,97.76
2023-04-19T02:00:27.072Z,97.23
2023-04-19T02:02:53.930Z,98.38
2023-04-19T02:05:21.281Z,98.34
2023-04-19T02:07:48.175Z,97.89
2023-04-19T02:10:15.096Z,96.68
2023-04-19T02:12:43.078Z,96.94
2023-04-19T02:15:10.498Z,96.81
2023-04-19T02:17:37.425Z,96.91
2023-04-19T02:20:06.054Z,97.49
2023-04-19T02:22:32.879Z,97.39
2023-04-19T02:24:59.734Z,98.17
2023-04-19T02:27:26.782Z,98.10
2023-04-19T02:29:53.592Z,97.57
2023-04-19T02:32:20.453Z,97.99
2023-04-19T02:34:47.380Z,97.60
2023-04-19T02:37:14.218Z,97.44
2023-04-19T02:39:42.824Z,97.83
2023-04-19T02:42:09.641Z,97.66
2023-04-19T02:44:36.503Z,97.87
2023-04-19T02:47:03.487Z,97.74
2023-04-19T02:49:34.850Z,96.97
2023-04-19T02:52:01.784Z,97.12
2023-04-19T02:54:28.633Z,96.61
2023-04-19T02:56:55.462Z,97.00
2023-04-19T02:59:22.300Z,96.63
2023-04-19T03:01:49.160Z,97.41
2023-04-19T03:04:17.431Z,97.61
2023-04-19T03:06:44.823Z,97.28
2023-04-19T03:09:11.914Z,96.66
2023-04-19T03:11:38.960Z,96.89
2023-04-19T03:14:05.813Z,96.41
2023-04-19T03:16:32.647Z,96.61
2023-04-19T03:18:59.553Z,96.49
2023-04-19T03:21:27.738Z,95.93
2023-04-19T03:23:55.845Z,96.71
2023-04-19T03:26:22.830Z,96.90
2023-04-19T03:28:49.703Z,97.13
2023-04-19T03:31:16.856Z,96.86
2023-04-19T03:33:43.970Z,97.08
2023-04-19T03:36:10.799Z,96.64
2023-04-19T03:38:37.801Z,97.17
2023-04-19T03:41:04.727Z,97.61
2023-04-19T03:43:31.553Z,97.70
2023-04-19T03:45:58.760Z,98.13
2023-04-19T03:48:25.649Z,97.92
2023-04-19T03:50:52.491Z,97.96
2023-04-19T03:53:19.579Z,98.19
2023-04-19T03:55:46.399Z,98.07
2023-04-19T03:58:13.216Z,97.71
2023-04-19T04:00:40.051Z,97.29
2023-04-19T04:03:07.016Z,96.52
2023-04-19T04:05:36.265Z,96.46
2023-04-19T04:08:03.164Z,96.55
2023-04-19T04:10:30.036Z,96.68
2023-04-19T04:12:56.911Z,97.34
2023-04-19T04:15:23.753Z,96.26
2023-04-19T04:17:51.396Z,97.09
2023-04-19T04:20:18.330Z,96.45
2023-04-19T04:22:48.496Z,96.72
2023-04-19T04:25:19.562Z,96.86
2023-04-19T04:27:51.832Z,96.92
2023-04-19T04:30:18.751Z,97.01
2023-04-19T04:32:47.169Z,96.64
2023-04-19T04:35:14.036Z,95.94
2023-04-19T04:37:40.954Z,95.44
2023-04-19T04:40:09.273Z,96.87
2023-04-19T04:42:37.927Z,96.91
2023-04-19T04:45:05.868Z,96.71
2023-04-19T04:47:34.342Z,96.09
2023-04-19T04:50:02.528Z,96.33
2023-04-19T04:52:29.799Z,96.29
2023-04-19T04:54:56.671Z,95.98
2023-04-19T04:57:23.500Z,95.74
2023-04-19T04:59:50.341Z,95.50
2023-04-19T05:02:17.516Z,95.70
2023-04-19T05:04:44.509Z,95.58
2023-04-19T05:07:11.878Z,95.86
2023-04-19T05:09:38.743Z,95.81
2023-04-19T05:12:06.016Z,95.89
2023-04-19T05:14:32.848Z,95.96
2023-04-19T05:16:59.725Z,96.04
2023-04-19T05:19:26.568Z,96.28
2023-04-19T05:21:53.444Z,96.93
2023-04-19T05:24:20.448Z,97.94
2023-04-19T05:26:47.278Z,96.73
2023-04-19T05:29:14.457Z,97.29
2023-04-19T05:31:41.400Z,97.42
2023-04-19T05:34:08.354Z,96.39
2023-04-19T05:36:35.169Z,96.58
2023-04-19T05:39:02.077Z,96.95
2023-04-19T05:41:28.898Z,96.32
2023-04-19T05:43:55.752Z,96.40
2023-04-19T05:46:22.690Z,96.05
2023-04-19T05:48:49.578Z,95.58
2023-04-19T05:51:18.374Z,95.45
2023-04-19T05:53:46.527Z,95.81
2023-04-19T05:56:13.503Z,96.47
2023-04-19T05:58:40.329Z,95.60
2023-04-19T06:01:07.475Z,94.96
2023-04-19T06:03:34.594Z,95.19
2023-04-19T06:06:01.855Z,94.94
2023-04-19T06:08:28.825Z,95.28
2023-04-19T06:11:02.156Z,94.75
2023-04-19T06:13:35.052Z,95.49
2023-04-19T06:16:02.686Z,94.58
2023-04-19T06:18:29.708Z,94.59
2023-04-19T06:20:56.605Z,94.55
2023-04-19T06:23:23.810Z,95.44
2023-04-19T06:25:50.605Z,95.23
2023-04-19T06:28:17.476Z,95.18
2023-04-19T06:30:44.665Z,95.29
2023-04-19T06:33:11.580Z,94.81
2023-04-19T06:35:38.576Z,95.50
2023-04-19T06:38:05.522Z,95.52
2023-04-19T06:40:32.396Z,95.59
2023-04-19T06:42:59.235Z,95.11
2023-04-19T06:45:26.362Z,95.02
2023-04-19T06:47:53.258Z,94.80
2023-04-19T06:50:20.338Z,94.42
2023-04-19T06:52:47.175Z,94.83
2023-04-19T06:55:14.019Z,94.47
2023-04-19T06:57:41.101Z,94.21
2023-04-19T07:00:08.999Z,95.31
2023-04-19T07:02:36.090Z,94.80
2023-04-19T07:05:04.022Z,94.89
2023-04-19T07:07:30.881Z,94.78
2023-04-19T07:09:57.709Z,94.73
2023-04-19T07:12:24.523Z,95.05
2023-04-19T07:14:56.578Z,94.80
2023-04-19T07:17:24.079Z,95.57
2023-04-19T07:19:51.083Z,95.83
2023-04-19T07:22:17.911Z,96.17
2023-04-19T07:24:45.097Z,96.81
2023-04-19T07:27:12.304Z,96.37
2023-04-19T07:29:40.507Z,96.58
2023-04-19T07:32:14.078Z,96.63
2023-04-19T07:34:41.620Z,96.09
2023-04-19T07:37:08.726Z,96.47
2023-04-19T07:39:35.548Z,95.80
2023-04-19T07:42:02.512Z,95.24
2023-04-19T07:44:29.393Z,94.42
2023-04-19T07:46:56.499Z,94.82
2023-04-19T07:49:23.478Z,95.65
2023-04-19T07:51:50.876Z,96.27
2023-04-19T07:54:20.328Z,96.03
2023-04-19T07:56:47.247Z,96.06
2023-04-19T07:59:14.086Z,95.80
2023-04-19T08:01:42.458Z,95.04
2023-04-19T08:04:10.024Z,95.31
2023-04-19T08:06:39.915Z,93.74
2023-04-19T08:09:07.046Z,92.78
2023-04-19T08:11:33.896Z,93.25
2023-04-19T08:14:09.321Z,92.82
2023-04-19T08:17:19.538Z,93.22
2023-04-19T08:19:28.667Z,93.15
2023-04-19T08:21:55.509Z,92.72
2023-04-19T08:24:22.374Z,92.99
2023-04-19T08:26:53.938Z,92.61
2023-04-19T08:29:22.452Z,92.03
2023-04-19T08:31:49.730Z,91.85
2023-04-19T08:34:16.617Z,91.96
2023-04-19T08:36:51.820Z,91.91
2023-04-19T08:39:32.379Z,93.20
2023-04-19T08:42:18.376Z,93.62
2023-04-19T08:45:23.505Z,94.15
2023-04-19T08:47:58.689Z,93.04
2023-04-19T08:50:34.404Z,94.26
2023-04-19T08:53:21.035Z,93.76
2023-04-19T08:56:06.828Z,93.95
2023-04-19T08:58:54.834Z,93.08
2023-04-19T09:01:33.864Z,93.44
2023-04-19T09:04:26.434Z,93.00
2023-04-19T09:06:53.383Z,92.40
2023-04-19T09:09:36.970Z,92.45
2023-04-19T09:12:18.300Z,92.16
2023-04-19T09:15:00.467Z,92.24
2023-04-19T09:17:28.607Z,91.17
2023-04-19T09:19:55.673Z,92.23
2023-04-19T09:22:26.397Z,91.41
2023-04-19T09:25:30.653Z,91.22
2023-04-19T09:27:40.520Z,91.72
2023-04-19T09:30:14.802Z,92.00
2023-04-19T09:32:49.602Z,90.36
2023-04-19T09:35:16.709Z,89.65
2023-04-19T09:40:27.138Z,88.25
2023-04-19T09:43:08.886Z,87.72
2023-04-19T09:45:43.768Z,87.51
2023-04-19T09:48:12.218Z,87.25
2023-04-19T09:51:01.985Z,87.24
2023-04-19T09:53:35.527Z,86.44
2023-04-19T09:56:03.825Z,85.67
2023-04-19T09:58:46.101Z,85.96
2023-04-19T10:01:17.107Z,84.67
2023-04-19T10:03:50.406Z,83.79
2023-04-19T10:08:51.410Z,84.51
2023-04-19T10:11:22.178Z,84.17
2023-04-19T10:13:51.234Z,83.21
2023-04-19T10:16:20.225Z,83.05
2023-04-19T10:18:50.484Z,82.56
2023-04-19T10:21:19.420Z,82.73
2023-04-19T10:23:47.411Z,82.14
2023-04-19T10:26:14.286Z,80.45
2023-04-19T10:28:42.745Z,81.78
2023-04-19T10:31:16.334Z,80.16
2023-04-19T10:33:43.356Z,80.37
2023-04-19T10:36:14.662Z,80.56
2023-04-19T10:38:49.675Z,79.94
2023-04-19T10:41:19.254Z,79.14
2023-04-19T10:43:55.366Z,79.87
2023-04-19T10:46:22.258Z,79.70
2023-04-19T10:49:00.620Z,77.91
2023-04-19T10:51:35.835Z,78.49
2023-04-19T10:54:07.717Z,78.13
2023-04-19T10:56:34.618Z,75.84
2023-04-19T10:59:01.539Z,76.91
2023-04-19T11:01:46.177Z,75.70
2023-04-19T11:04:18.217Z,75.52
2023-04-19T11:06:51.613Z,72.36
2023-04-19T11:09:41.782Z,74.11
2023-04-19T11:12:12.219Z,71.39
2023-04-19T11:14:47.694Z,71.22
2023-04-19T11:17:25.948Z,69.30
2023-04-19T11:20:03.404Z,68.67
2023-04-19T11:22:30.158Z,67.28
2023-04-19T11:24:57.066Z,67.89
2023-04-19T11:27:23.924Z,68.04
2023-04-19T11:29:50.734Z,68.26
2023-04-19T11:32:21.711Z,68.38
2023-04-19T11:34:48.560Z,69.17
2023-04-19T11:37:15.364Z,69.82
2023-04-19T11:39:47.565Z,71.16
2023-04-19T11:42:21.620Z,70.78
2023-04-19T11:44:52.481Z,71.15
2023-04-19T11:47:20.490Z,72.04
2023-04-19T11:49:47.384Z,71.64
2023-04-19T11:52:23.198Z,72.13
2023-04-19T11:54:53.811Z,72.69
2023-04-19T11:57:31.653Z,73.08
2023-04-19T12:00:12.527Z,72.75
2023-04-19T12:02:44.034Z,73.14
2023-04-19T12:05:14.548Z,73.16
2023-04-19T12:08:08.619Z,74.16
2023-04-19T12:10:36.339Z,74.52
2023-04-19T12:13:18.207Z,73.49
2023-04-19T12:15:47.118Z,73.14
2023-04-19T12:18:14.844Z,72.94
2023-04-19T12:20:49.360Z,73.92
2023-04-19T12:23:18.202Z,72.31
2023-04-19T12:25:50.064Z,71.16
2023-04-19T12:28:17.286Z,70.25
2023-04-19T12:30:44.333Z,68.40
2023-04-19T12:33:11.862Z,67.67
2023-04-19T12:35:39.359Z,68.12
2023-04-19T12:38:06.303Z,67.62
2023-04-19T12:40:33.713Z,66.52
2023-04-19T12:43:00.609Z,66.55
2023-04-19T12:45:27.993Z,66.94
2023-04-19T12:47:54.911Z,67.93
2023-04-19T12:50:21.970Z,67.85
2023-04-19T12:52:48.868Z,67.89
2023-04-19T12:55:15.745Z,68.54
2023-04-19T12:57:42.687Z,68.49
2023-04-19T13:00:11.045Z,67.60
2023-04-19T13:02:38.597Z,67.25
2023-04-19T13:05:06.637Z,66.25
2023-04-19T13:07:33.520Z,68.04
2023-04-19T13:10:00.602Z,68.33
2023-04-19T13:12:28.615Z,68.60
2023-04-19T13:14:55.478Z,69.17
2023-04-19T13:17:22.387Z,69.35
2023-04-19T13:19:49.284Z,69.48
2023-04-19T13:22:16.146Z,69.94
2023-04-19T13:24:43.028Z,70.24
2023-04-19T13:27:09.955Z,70.51
2023-04-19T13:29:37.312Z,70.99
2023-04-19T13:32:07.797Z,71.45
2023-04-19T13:34:35.523Z,71.25
2023-04-19T13:37:02.379Z,71.21
2023-04-19T13:39:29.222Z,71.70
2023-04-19T13:41:56.131Z,73.04
2023-04-19T13:44:23.222Z,73.19
2023-04-19T13:46:50.209Z,73.63
2023-04-19T13:49:19.240Z,74.44
2023-04-19T13:51:50.840Z,73.48
2023-04-19T13:54:19.587Z,74.92
2023-04-19T13:56:48.647Z,74.87
2023-04-19T13:59:16.928Z,74.67
2023-04-19T14:01:43.730Z,75.60
2023-04-19T14:04:10.911Z,75.65
2023-04-19T14:06:38.071Z,76.79
2023-04-19T14:09:04.933Z,76.98
2023-04-19T14:11:31.818Z,75.61
2023-04-19T14:13:58.651Z,75.34
2023-04-19T14:16:25.683Z,76.49
2023-04-19T14:18:52.902Z,73.95
2023-04-19T14:21:20.005Z,74.38
2023-04-19T14:23:47.008Z,73.76
2023-04-19T14:26:14.719Z,75.25
2023-04-19T14:28:41.592Z,75.01
2023-04-19T14:31:08.429Z,74.79
2023-04-19T14:33:35.500Z,75.35
2023-04-19T14:36:02.378Z,74.78
2023-04-19T14:38:29.226Z,75.86
2023-04-19T14:40:56.486Z,77.18
2023-04-19T14:43:23.450Z,77.30
2023-04-19T14:45:52.981Z,76.78
2023-04-19T14:48:22.064Z,77.42
2023-04-19T14:50:49.635Z,77.88
2023-04-19T14:53:16.579Z,77.12
2023-04-19T14:55:43.557Z,76.51
2023-04-19T14:58:10.420Z,76.74
2023-04-19T15:00:37.311Z,76.49
2023-04-19T15:03:04.497Z,77.73
2023-04-19T15:05:35.590Z,77.73
2023-04-19T15:08:02.652Z,77.87
2023-04-19T15:10:29.561Z,78.33
2023-04-19T15:12:56.429Z,78.92
2023-04-19T15:15:23.295Z,78.34
2023-04-19T15:17:50.241Z,78.63
2023-04-19T15:20:17.342Z,78.64
2023-04-19T15:22:44.183Z,78.71
2023-04-19T15:25:11.085Z,78.58
2023-04-19T15:27:37.972Z,78.87
2023-04-19T15:30:06.462Z,80.39
2023-04-19T15:32:36.914Z,81.37
2023-04-19T15:35:07.292Z,81.17
2023-04-19T15:37:34.130Z,81.71
2023-04-19T15:40:01.066Z,82.09
2023-04-19T15:42:27.890Z,83.57
2023-04-19T15:44:54.818Z,83.91
2023-04-19T15:47:21.808Z,82.94
2023-04-19T15:49:48.671Z,83.73
2023-04-19T15:52:15.495Z,83.32
2023-04-19T15:54:42.348Z,84.48
2023-04-19T15:57:09.162Z,84.55
2023-04-19T15:59:36.089Z,85.08
2023-04-19T16:02:03.044Z,88.64
2023-04-19T16:04:31.341Z,89.16
2023-04-19T16:06:59.479Z,89.59
2023-04-19T16:09:26.620Z,88.48
2023-04-19T16:11:53.524Z,89.38
2023-04-19T16:14:20.380Z,89.32
2023-04-19T16:16:47.978Z,91.43
2023-04-19T16:19:15.098Z,91.29
2023-04-19T16:21:42.126Z,91.34
2023-04-19T16:24:08.973Z,91.32
2023-04-19T16:26:35.820Z,90.74
2023-04-19T16:29:02.631Z,90.24
2023-04-19T16:31:29.560Z,90.49
2023-04-19T16:33:56.434Z,89.91
2023-04-19T16:36:23.267Z,89.97
2023-04-19T16:38:50.082Z,90.15
2023-04-19T16:41:17.415Z,88.88
2023-04-19T16:43:44.575Z,88.14
2023-04-19T16:46:11.440Z,90.01
2023-04-19T16:48:38.315Z,91.16
2023-04-19T16:51:05.292Z,89.61
2023-04-19T16:53:32.402Z,91.21
2023-04-19T16:56:00.498Z,91.28
2023-04-19T16:58:27.342Z,90.26
2023-04-19T17:00:55.261Z,90.24
2023-04-19T17:03:22.429Z,90.79
2023-04-19T17:05:49.391Z,90.81
2023-04-19T17:08:16.333Z,92.60
2023-04-19T17:10:43.131Z,90.58
2023-04-19T17:13:09.998Z,90.30
2023-04-19T17:15:38.739Z,88.58
2023-04-19T17:18:05.925Z,89.94
2023-04-19T17:20:32.902Z,89.37
2023-04-19T17:22:59.800Z,90.13
2023-04-19T17:25:26.635Z,90.18
2023-04-19T17:27:53.497Z,88.93
2023-04-19T17:30:21.027Z,90.43
2023-04-19T17:32:47.909Z,90.11
2023-04-19T17:35:15.561Z,90.18
2023-04-19T17:37:43.791Z,90.05
2023-04-19T17:40:11.213Z,88.89
2023-04-19T17:42:38.198Z,90.79
2023-04-19T17:45:10.228Z,89.74
2023-04-19T17:47:40.965Z,90.02
2023-04-19T17:50:13.505Z,89.42
2023-04-19T17:52:40.542Z,90.57
2023-04-19T17:55:08.227Z,89.99
2023-04-19T17:57:35.476Z,89.91
2023-04-19T18:00:06.750Z,90.23
2023-04-19T18:03:02.645Z,91.29
2023-04-19T18:05:29.614Z,93.07
2023-04-19T18:07:56.764Z,91.71
2023-04-19T18:10:23.606Z,91.24
2023-04-19T18:12:50.815Z,90.79
2023-04-19T18:15:17.751Z,90.98
2023-04-19T18:17:44.621Z,92.53
2023-04-19T18:20:13.695Z,93.03
2023-04-19T18:22:40.824Z,91.86
2023-04-19T18:25:08.228Z,91.34
2023-04-19T18:27:35.322Z,92.51
2023-04-19T18:30:04.164Z,93.82
2023-04-19T18:32:32.192Z,93.75
2023-04-19T18:34:59.075Z,92.17
2023-04-19T18:37:25.932Z,91.72
2023-04-19T18:39:52.749Z,92.10
2023-04-19T18:42:19.608Z,92.36
2023-04-19T18:44:53.656Z,93.06
2023-04-19T18:47:21.532Z,93.34
2023-04-19T18:50:02.874Z,93.91
2023-04-19T18:52:31.907Z,93.56
2023-04-19T18:54:59.015Z,94.19
2023-04-19T18:57:27.632Z,93.04
2023-04-19T18:59:56.616Z,92.13
2023-04-19T19:02:23.607Z,91.91
2023-04-19T19:04:57.829Z,91.77
2023-04-19T19:10:06.315Z,92.83
2023-04-19T19:12:43.757Z,93.40
2023-04-19T19:15:10.937Z,93.48
2023-04-19T19:17:38.157Z,94.49
2023-04-19T19:20:06.956Z,95.66
2023-04-19T19:22:34.383Z,96.05
2023-04-19T19:25:01.369Z,95.82
2023-04-19T19:27:28.352Z,96.57
2023-04-19T19:29:55.453Z,96.91
2023-04-19T19:32:22.467Z,97.11
2023-04-19T19:34:56.558Z,96.39
2023-04-19T19:37:27.761Z,96.95
2023-04-19T19:39:56.469Z,97.68
2023-04-19T19:42:24.282Z,97.32
2023-04-19T19:44:57.006Z,97.09
2023-04-19T19:47:25.291Z,96.47
2023-04-19T19:50:21.346Z,96.42
2023-04-19T19:52:39.178Z,97.12
2023-04-19T19:55:08.653Z,98.07
2023-04-19T20:00:28.114Z,96.38
2023-04-19T20:02:58.962Z,97.94
2023-04-19T20:05:26.659Z,97.58
2023-04-19T20:08:14.578Z,96.77
2023-04-19T20:10:43.095Z,98.26
2023-04-19T20:13:12.011Z,98.19
2023-04-19T20:15:39.971Z,98.67
2023-04-19T20:18:08.292Z,98.89
2023-04-19T20:20:36.711Z,97.96
2023-04-19T20:23:03.677Z,96.27
2023-04-19T20:25:32.688Z,96.79
2023-04-19T20:28:02.505Z,97.16
2023-04-19T20:30:29.344Z,96.40
2023-04-19T20:32:56.291Z,96.01
2023-04-19T20:35:23.404Z,96.07
2023-04-19T20:37:51.083Z,97.01
2023-04-19T20:40:18.942Z,96.90
2023-04-19T20:42:45.772Z,97.93
2023-04-19T20:45:16.016Z,98.46
2023-04-19T20:47:43.269Z,98.68
2023-04-19T20:50:10.796Z,98.18
2023-04-19T20:52:37.843Z,98.07
2023-04-19T20:55:05.179Z,98.51
2023-04-19T20:57:32.028Z,97.61
2023-04-19T20:59:59.617Z,98.15
2023-04-19T21:02:26.703Z,98.16
2023-04-19T21:04:53.762Z,98.75
2023-04-19T21:07:20.710Z,99.74
2023-04-19T21:09:47.536Z,100.00
2023-04-19T21:12:14.380Z,99.27
2023-04-19T21:14:41.290Z,98.91
2023-04-19T21:17:08.098Z,99.14
2023-04-19T21:19:37.049Z,100.00
2023-04-19T21:22:03.889Z,99.45
2023-04-19T21:24:30.738Z,100.00
2023-04-19T21:26:57.944Z,100.00
2023-04-19T21:29:25.496Z,98.44
2023-04-19T21:31:52.387Z,97.63
2023-04-19T21:34:19.264Z,97.78
2023-04-19T21:36:46.084Z,97.05
2023-04-19T21:39:12.973Z,97.13
2023-04-19T21:41:39.825Z,97.44
2023-04-19T21:44:07.230Z,97.46
2023-04-19T21:46:35.123Z,97.06
2023-04-19T21:49:02.052Z,97.57
2023-04-19T21:51:28.871Z,97.22
2023-04-19T21:53:55.730Z,97.03
2023-04-19T21:56:22.560Z,98.71
2023-04-19T21:58:49.441Z,100.00
2023-04-19T22:03:43.493Z,98.62
2023-04-19T22:06:10.455Z,97.86
2023-04-19T22:08:37.323Z,96.61
2023-04-19T22:11:04.393Z,97.92
2023-04-19T22:13:33.663Z,96.70
2023-04-19T22:16:02.540Z,98.00
2023-04-19T22:18:29.455Z,96.79
2023-04-19T22:20:56.267Z,97.19
2023-04-19T22:23:23.122Z,98.05
2023-04-19T22:25:50.097Z,97.46
2023-04-19T22:28:16.954Z,96.93
2023-04-19T22:30:43.821Z,97.14
2023-04-19T22:33:10.901Z,96.86
2023-04-19T22:35:37.738Z,97.47
2023-04-19T22:38:04.582Z,96.89
2023-04-19T22:40:31.406Z,96.91
2023-04-19T22:42:58.254Z,98.00
2023-04-19T22:45:25.128Z,97.00
2023-04-19T22:47:51.977Z,97.12
2023-04-19T22:50:19.153Z,96.29
2023-04-19T22:52:46.063Z,96.24
2023-04-19T22:55:13.009Z,97.61
2023-04-19T22:57:39.846Z,98.43
2023-04-19T23:00:10.657Z,97.64
2023-04-19T23:02:38.825Z,96.89
2023-04-19T23:05:06.818Z,97.46
2023-04-19T23:07:34.017Z,96.86
2023-04-19T23:10:01.254Z,96.02
2023-04-19T23:12:31.287Z,95.58
2023-04-19T23:14:58.575Z,96.71
2023-04-19T23:17:25.772Z,96.91
2023-04-19T23:19:52.613Z,96.22
2023-04-19T23:22:19.534Z,97.03
2023-04-19T23:24:46.480Z,95.89
2023-04-19T23:27:13.357Z,96.76
2023-04-19T23:29:40.234Z,96.16
2023-04-19T23:32:07.096Z,96.34
2023-04-19T23:34:33.903Z,97.15
2023-04-19T23:37:00.909Z,97.25
2023-04-19T23:39:27.743Z,96.35
2023-04-19T23:41:54.628Z,96.82
2023-04-19T23:44:21.675Z,97.14
2023-04-19T23:46:48.578Z,98.45
2023-04-19T23:49:15.672Z,98.90
2023-04-19T23:51:42.855Z,98.74
2023-04-19T23:54:09.683Z,98.76
2023-04-19T23:56:36.518Z,98.48
2023-04-19T23:59:03.509Z,98.73
